Aeroporto :
LOGIN :

Iscrizione | Disclaimer

   EN    FR    IT 

 










Sommario :    VFR   VFR Marginale   IFR   IFR Intensivo   IFR Molto Intensivo
Visibilità : 
Base nubi : 
>= 8 km
>= 3000ft
5 / 8 km
1000 / 3000 ft
1500m / 5 km
500 / 1000 ft
800 / 1500m
200 / 500 ft
< 800m
< 200 ft
Simboli :   Temporali  Nebbia  Neve Forte  Precipitazioni Forti  Vento > 20 kt
SIGMETs :   Varie  Temporali  Ghiacco  Turbolenza  Onda orograficha  Ceneri Vulcaniche






- Altitudine del aeroporto : 11 ft
- Codice IATA : MJV


LELC - Murcia San Javier

ULTIMO METAR :
  • 302000Z 06017KT 030V090 9999 FEW018 OVC038 14/11 Q1011 NOSIG

METARs OBSOLETI :
  • 301930Z 06019KT 030V100 9999 FEW018 BKN025 13/10 Q1011 NOSIG
  • 301900Z 06019KT 030V100 9999 BKN023 OVC025 14/10 Q1010 NOSIG
  • 301830Z 06018KT 030V100 9999 BKN023 14/10 Q1010 NOSIG
  • 301800Z 06018KT 040V120 9999 FEW021 BKN036 14/11 Q1010 NOSIG
  • 301730Z 07017KT 040V110 9999 FEW021 BKN032 14/11 Q1010 NOSIG

TAF TAF LELC
Valido dal 30 a 18 ore il 31 a 18 ore UTC


301700Z 3018/3118 07016KT 9999 SCT015 BKN030 TX17/3113Z TN12/3106Z
PROB30
TEMPO 3018/3103 RA BKN014
PROB40
TEMPO 3108/3115 4000 SHRA SCT015TCU BKN020
BECMG 3110/3113 05006KT



MetMap, La meteo Aeronautica in un colpo d'occhio ! - Copyright ORBIFLY Dicembre 2007 - Disclaimer

ORBIFLY MET'MAP TEAM :

Programmazione e sviluppo : Alexandra Zaïnal
Concezione : Baudouin d'Aumeries
Aiuto per la programmazione : Marc-Olivier Méhu
Supporto tecnico e logistico : Manuel Goepfert
Aiuto per la traduzione : Arnaldo La Scala

Contatto : metmap@orbifly.com




FONTI E CREDITI :

   NOAA